cliquez pour ajouter le site Runraid à vos favoris  English version (google)  Retour à l'accueil Ecrire à l'auteur du site Runraid : Michel Jourdan



Les prochaines courses


Les derniers résultats

cliquez pour visualiser la page complète relatant la chronologie des éruptions du Piton de la Fournaise
éruptions Piton de la Fournaise


Ile de La Réunion

 Diagonale des Fous 

Ecrire au créateur du site : Michel Jourdan
Contact


2007-06-16 - Grand Raid du Mercantour

Pour consulter le palmarès d'un coureur, un clic sur son nom !

Vous avez des remarques, corrections, ... sur ces résultats , un clic sur --> pour me transmettre toute information concernant les classements


Grand Raid du Mercantour - 2007 : classement des 297 finishers
Place Nom Temps Cat. Club Sexe Clt/cat.
Place Nom Temps Cat. Club Sexe Clt/cat.
1 CHAIGNEAU Sebastien 14:25:26 SEM DRAGUIGNAN U.C. M 4
2 ROUANET RENAUD 15:02:00 SEM ENDURANCE SHOP M 231
3 GUILLON ANTOINE 15:03:27 S TAILL'AVENTURE M 651
4 BERNARD GUILLAUME 15:55:15 S - M 383
5 LEVY DANIEL 15:55:15 S - M 9
6 DECHET PATRICK 16:08:39 V1 - M 1er V1 12
7 MATHIAN Jean MARIE 16:11:19 V1 - M 446
8 BOISNEL ALAIN 16:12:13 V1 ASPTT TOULON M 604
9 BARBIER FRANCK 16:20:27 V1 COURIR HT VERDON M 512
10 GALLOT PATRICK 16:37:14 V1 RAID AVENTURE M 329
11 ZAUGG Jean MARC 16:39:07 S ALCATEL SPACE M 354
12 OLLAGNIER CYRIL 16:50:25 S TEAM RUNNING CONS. M 455
13 PINET GUY 16:56:21 V2 CLES GARDANNE M 1er V2 349
14 STAUB Jean Vincent 16:57:06 S TROTTEURS LA TRACE M 369
15 JUCHEREAU JANNICK 17:02:00 V1 - M 695
16 VANDENBUSSCHE NOEL 17:16:11 V1 ACM/UST M 19
17 SESSEGOLO DIDIER 17:19:59 V1 APACHES 06 M 11
18 SOULIER HELIAN 17:24:34 V1 - M 656
19 MERKEL JOEL 17:33:41 S SKI CLUB NOZEROY M 75
20 SINDOU ARNAUD 17:40:27 S OCC CABRIES M 55
21 PARMENTIER PIERRE YVES 17:40:27 S ORANGE DE BRETAGNE M 436
22 RONZIER FREDERIC 17:40:51 S - M 31
23 MOTSCH MATHIEU 17:48:43 S VOSGIRUNNER M 20
24 MARMOLLE FRANK 17:52:54 S TRIATHL'AIX M 488
25 PFEND STEPHANE 17:53:16 S CAF ISERE M 27
26 SOUCHON FREDERIC 17:54:09 S - M 456
27 GUYON THIERRY 17:56:27 V1 - M 178
28 BESSON THIERRY 17:56:27 V1 - M 428
29 BARON SANDRINE 18:00:12 SF ENDURANCE SHOP F 1ere F 563
30 MAGILANO CHRISTOPHE 18:13:04 V1 CAF NICE M 623
31 OGGIER PIERRE MICHEL 18:13:12 V1 UFO CA VETROZ M 324
32 GALLARD Jean PHILIPPE 18:23:19 S CAF DU COUDON M 220
33 DOULAT CHRISTOPHE 18:26:56 V1 CMBM CHAMONIX M 577
34 MUSAZZI SIMONE 18:29:45 S TEM.LIBERO MONTRAIL M 482
35 COINTEPAS NICOLAS 18:35:47 S CAF ANNECY M 46
36 DENAIX ALAIN 18:36:05 V2 CAF DU COUDON M 39
37 MORETTO GINETTE 18:42:11 V2F - F 2eme F 569
38 CHOMIENNE DOMINIQUE 18:43:02 S GMA 500 M 74
39 DENIS EMMANUEL 18:48:59 S FREJUS ORIENTATION M 360
40 VIASSONE SERGE 18:49:05 V1 - M 570
41 FROPIER MICHEL 18:49:53 S - M 459
42 LADAS DAVID 18:50:23 S - M 632
43 PEISSON ERICK 18:53:42 V2 - M 85
44 DESCHAMPS JULIEN 18:53:42 S - M 427
45 TESSIER Jean Pierre 19:06:13 V2 - M 188
46 GRASSI FABRICE 19:08:04 S CYRFAB M 390
47 DUVERT CHARLY 19:21:58 V1 APACHES 06 M 7
48 MELCHERS CHRISTOPHE 19:23:31 S APACHES 06 M 16
49 HOULOT CHARLES 19:25:25 V1 CHEVALIERS DU VENT M 613
50 SANZ ERIC 19:25:25 S TAILL'AVENTURE M 666
51 GINETTI BERNARD 19:32:52 V1 IND. M 94
52 BALIZET PATRICK 19:38:32 V1 *MONTBELIARD TRIATH M 156
53 CHIRI DUILIO 19:38:36 V1 ATHLET. VALPELLICE M 312
54 DUBAN BAPTISTE 19:41:39 S IND. M 377
55 LOPEZ DORIAN 19:45:11 S FREJUS ORIENTATION M 407
56 BOEBION DANIEL 19:48:21 V3 CAF. M 1er V3 609
57 RINGEVAL BRUNO 19:56:58 V2 CHEVALIERS DU VENT M 678
58 POIRIER BRUNO 20:08:01 V1 CHEVALIERS DU VENT M 40
59 CAHU IVAN 20:08:01 V1 ORANGE DE BRETAGNE M 437
60 FOUQUES PASCALE 20:10:16 V1F - F 2eme F 418
61 RADONDY YVONNE 20:10:16 V1F - F 4eme Feminine 417
62 FERT ETIENNE 20:11:05 V1 CHEVALIERS DU VENT M 63
63 UGHETTO Jean Pierre 20:15:27 V1 IND. M 633
64 FEUTRY PHILIPPE 20:21:53 S IND. M 664
65 RUCHIER PAUL 20:25:36 S IND. M 697
66 LAMARQUE PATRICK 20:28:45 V2 C.A.BEGLAIS M 647
67 PINEAU ERIC 20:29:31 V1 SPEEDY CLUB PROVENCE M 184
68 MONNET PATRICK 20:39:04 V2 X TRIM M 164
69 BOUTHEMY GUY 20:40:15 V2 STADE LAURENTIN M 396
70 OTMANI Jean PAUL 20:42:34 V1 IND. M 89
71 NATIVEL GINOT JOSEPH 20:49:40 V1 COUR PAYS GRASSE M 26
72 TOTMA J CYRILLE 20:49:40 V1 COUR PAYS GRASSE M 236
73 FEMINIER ERIC 20:51:15 V1 ALTITUDE SPORT M 169
74 LINDER JAMES 20:52:34 V1 IND. M 45
75 DUMONTIER CHRISTOPHE 20:52:34 V1 IND. M 197
76 GOUTAGNY GEORGES 20:55:12 V1 IND. M 363
77 BORDET GABRIEL 20:55:12 V2 IND. M 338
78 MAIRE FLORENT 20:56:30 V1 IND. M 439
79 ROUZIES BERNARD 21:01:20 V2 IND. M 79
80 LEONARDI PASCAL 21:02:12 V1 I FILANCI M 653
81 VEYRUNES MONIQUE 21:15:51 V2F - F 5eme Feminine 452
82 COUZIN Jean Pierre 21:31:59 V1 A.C. CANNES M 144
83 ARNAUD GERARD 21:32:19 V1 AIL ROUSSET M 36
84 PETIT EMMANUEL 21:34:55 V1 LES TROIS BECS M 295
85 GALLETTO MARCO 21:39:40 V1 ERMENEGILDO ZEGNA M 104
86 PERES J CHRISTOPHE 21:41:38 S IND. M 655
87 ORMAT MICHEL 21:41:38 S BATZANDARRAK M 660
88 SCORLETTI LAURENT 21:41:38 S SPEEDY CLUB PROVENCE M 682
89 FERRARIS GIL 21:46:52 V1 IND. M 77
90 DUFOREST ERIC 21:46:52 S ACCM M 325
91 QUENARD SEBASTIEN 21:49:54 S ASCEA M 535
92 DELAPLANCHE DAMIEN 21:49:54 S IND. M 537
93 MORINO ROS SYLVAIN 21:49:54 V1 ASCEA M 543
94 GARANDEL MORGAN 21:53:16 S IND. M 411
95 PICCARDO LORENZO 21:59:01 V1 CFFS COGOLETO M 341
96 JULIEN CEDRIC 22:01:08 S IND. M 97
97 GOURNELON RONAN 22:04:15 V1 NORD ISERE EAU VIVE M 579
98 QUERO OLIVIER 22:10:40 V1 COURIR A LA BAULE M 530
99 MONMARCHE DANIEL 22:11:53 V1 C.S.M. LA SEYNE M 665
100 FRANCOIS BRAZIER MARC 22:11:53 V1 IND. M 207
101 CLEMENT JACKY 22:11:53 V1 JOG ABLAIN M 226
102 TOLLE FLORIAN 22:11:53 S BUC ALPIN M 561
103 GREMEAUX DENIS 22:12:13 S ATOMIC RIDER M 371
104 CAQUET PASCAL 22:12:13 V1 BIARRITZ OLYMPIQUE M 57
105 ILIOU CHRISTOPHE 22:12:13 V1 OCC CABRIES M 43
106 DOAT FRANCOIS 22:12:13 V1 CHEVALIERS DU VENT M 614
107 NOE LAURENT 22:12:13 S IND. M 585
108 LODOR DANIEL 22:12:13 V2 AQUAGYM BRIGNOLES M 137
109 ZAPATA JEAN 22:12:13 V1 IND. M 648
110 GIOVANNONI OLIVIER 22:13:10 V1 A.C. CORTE M 590
111 GIORDANO SERGE 22:16:04 V1 APACHES 06 M 8
112 FORREL PHILIPPE 22:16:23 S *CASCOL M 284
113 LLAGONE PASCAL 22:22:51 V1 TAILL'AVENTURE M 650
114 FONTANELI DENIS 22:23:16 S AIL ROUSSET M 584
115 PESCE PIERRE 22:23:16 V1 IND. M 135
116 COUDRAY ARNAUD 22:26:43 S RAID-UP M 431
117 MATHIS SYLVIE 22:30:55 SF STADE MONTOIS F 91
118 NEGRI LUIGI 22:31:05 S 2 SLOW M 387
119 CASTIN Jean MICHEL 22:32:10 V1 IND. M 56
120 DEVEY Jean MARC 22:32:20 V2 AMI.PENNES MIRABEAU M 198
121 CEACLIO PIERRE 22:32:20 S IND. M 51
122 LOPEZ CLAUDE 22:35:06 V1 CAVAL PERTUIS M 52
123 FOURMENT HERVE 22:35:06 V1 SPEEDY CLUB PROVENCE M 34
124 SERY EMMANUEL 22:36:20 S PRAZ MONTAGNE M 54
125 CASAS PHILIPPE 22:36:20 V1 CAF. M 80
126 POIVET PATRICK 22:40:24 V1 RACING CLUB NANTAIS M 32
127 RAMIERE MICHEL 22:40:24 V2 SPIRIDON C.A. M 185
128 FAGIANO THIERRY 22:43:06 V1 A.S.C.K. M 268
129 GORY ALAIN 22:48:50 V2 TRAIL CLUB OLLIOULES M 361
130 GALEA ERIC 22:51:31 S *SALON TRIATHLON M 429
131 CHEVET CHRISTOPHE 22:51:33 S IND. M 310
132 PARMENTIER HERVE 22:51:35 V1 *ST.LAURENTIN TRIAT M 491
133 NEBOIT CHRISTIAN 22:52:01 V1 IND. M 345
134 BARRALIS J FRANCOIS 22:52:11 V2 IND. M 511
135 LEGRAND BRUNO 22:52:59 V1 ORANGE DE BRETAGNE M 435
136 DUJARDIN FRANCK 22:54:58 V1 IND. M 196
137 BALADI MICHELE 22:56:38 V1F CAF CHEDDES F 630
138 DETRY YVES 22:56:38 V2 CAF CHEDDES M 629
139 BALDINI GIOVANNI 23:03:47 V1 AT.DI MARCO VITERBO M 201
140 CLEVA Jean Pierre 23:03:47 V1 IND. M 328
141 EYEN PIERRE 23:08:04 S CO LIEGE M 301
142 MARIN JANNE 23:10:18 S ENDURANCE SHOP M 443
143 LINXE Jean MICHEL 23:12:57 V1 IND. M 304
144 ROUSSEAU MICHEL 23:17:20 V1 SAULX-LES-CHARTREUX M 391
145 MARGOLIS XAVIER 23:17:56 S ST MAXIMIN A.C. M 163
146 VINAI ROGER 23:17:56 V2 ST MAXIMIN A.C. M 453
147 MARIANI MARCO LUCA 23:21:19 S CCS AVIS TORINO M 432
148 KOPPE JEAN LOUP 23:22:13 V2 APACHES 06 M 82
149 RYCKEBOER DIMITRI 23:25:20 S ASPTT TOULON M 605
150 LEONARDI THIERRY 23:26:05 V1 I FILANCI M 652
151 BERNARD PIERRE 23:27:21 V1 CAF PAU M 47
152 FAUVEL MAURICE 23:27:21 V2 IND. M 219
153 OMNES ALAIN 23:29:57 V1 IND. M 442
154 HERPE J GUILLAUME 23:33:39 S IND. M 332
155 SIGNOR Jean Claude 23:38:48 V3 ASCEA M 542
156 BELLANGER FREDERIC 23:38:48 V1 IND. M 451
157 CRETIN DENIS 23:39:50 V1 *MONTBELIARD TRIAT. M 300
158 BALIZET BERNARD 23:45:45 V2 *MONTBELIARD TRIATH M 159
159 URSENBACH REGIS 23:48:36 V1 ASCEA M 546
160 RESSEGUIER DIDIER 23:48:36 S 56?BATAILLON TRAIN M 440
161 GERMAIN PATRICK 24:02:16 V2 IND. M 101
162 TRAN ALAIN 24:02:16 V2 ASLA M 69
163 CERFOGLINO JACKY 24:02:16 V2 ASVRTT VILLENEUVE M 374
164 FERRI DANIEL 24:02:32 V2 IND. M 621
165 LAGASSE GISELE 24:18:31 V2F SPEEDY CLUB PROVENCE F 107
166 GUYADER RAYMOND 24:18:36 V2 SPEEDY CLUB PROVENCE M 225
167 BETTINI ARMEL 24:38:16 S IND. M 158
168 INCARDONA BRUNO 24:52:18 V1 C.S.M. LA SEYNE M 113
169 ESQUIS ALAIN 24:54:28 V2 US ISSOIRE M 86
170 DESUSCLADE STEPHANE 24:54:28 S US ISSOIRE M 126
171 VEDRY CHRISTOPHE 24:54:28 V1 US ISSOIRE M 110
172 AFFRE ROXANE 24:55:05 V1F - F 179
173 SEBBAN MARC 24:55:05 V1 IND. M 180
174 PITRUZELLA LUIGI 24:55:58 V1 C.S.M. LA SEYNE M 477
175 BOERNER GERHARD 25:05:31 V2 DAV NUREMBERG M 316
176 MASTROTHEODOROS ANASTASIOS 25:05:36 V2 EOS AHARNON M 680
177 RADIA FRED 25:05:38 V1 IND. M 693
178 NOIRY Jean Pierre 25:10:21 V2 ATOS M 642
179 REMY FABRICE 25:10:21 V1 IND. M 315
180 WASTERLAIN J FRANCOIS 25:10:21 S TRAIL CLUB OLLIOULES M 42
181 SIMONIN GERARD 25:10:31 V2 U.S.P.E.G. MARSEILLE M 202
182 VIVIAND JEROME 25:11:48 S ATH.END.TRAIL TRIBU M 174
183 CHARVIN CEDRIC 25:11:48 S IND. M 37
184 DUTERME VIRGINIE 25:11:48 SF - F 253
185 EVEN JEAN YVES 25:12:06 V1 REV 7 M 161
186 SIMARD ARNAUD 25:15:20 S BUC ALPIN M 560
187 TONCHI STEFANO 25:21:59 V1 POD.SOLIDARIET.ROMA M 355
188 MICHENEAU PATRICK 25:21:59 V1 IND. M 586
189 STEPHAN YANN 25:23:32 V2 IND. M 372
190 CORMIER GILLES 25:23:32 V1 U.A.S.G. M 95
191 MAROSELLI ALAIN 25:24:59 S CS MEZZAVIA M 242
192 PETOLICCHIO ROBERT 25:24:59 V1 APACHES 06 M 18
193 BORTOLOTTO GABRIELE 25:25:19 S *MONTANAIA RACING M 689
194 DE ALESSANDRI ANDREA 25:32:25 V1 PODISTICA MONDOVI M 259
195 RULLIER VINCENT 25:34:05 V2 AIN EST ATHLETISME M 366
196 DUFOREST FRANCOIS 25:34:05 V1 RANDONNEURS CHERAN M 326
197 RIONDET GILLES 25:34:05 V2 IND. M 461
198 SCHMELTZER OLIVIER 25:34:05 V1 GMA 500 M 480
199 PERIER MICHEL 25:35:15 V2 SPEEDY CLUB PROVENCE M 499
200 DURERO CLAUDINE 25:35:27 V1F ASPTT GRASSE F 138
201 GAY EDOUARD 25:35:28 V2 SPIRIDON C.A. M 76
202 MOINIER GILLES 25:35:28 V2 ACL MARLY M 68
203 RENAUD THIERRY 25:42:08 S IND. M 549
204 CHEVAL CEDRIC 25:42:08 S CAF BELFORT M 479
205 BARTHE JEROME 25:42:08 S IND. M 694
206 SICARD THIERRY 25:42:48 V1 CA BRIVE M 414
207 JACQUEAU OLIVIER 25:42:48 V1 IND. M 150
208 HERMENT STEPHAN 25:42:48 S AC GESPUNSART M 327
209 VERHAEGE THIERRY 25:48:19 V2 SAULX-LES-CHARTREUX M 404
210 TRUFFIER CHRISTOPHE 25:53:15 S ENDUR.TRAIL TRIBU M 506
211 ARNAUD ROLAND 25:53:15 V1 COURIR A ST CYR M 141
212 CARLINO ANTOINE 25:53:38 V1 ALCATEL SPACE M 352
213 OUDJIT RIAD 26:00:41 S ALE ECHIROLLES M 317
214 NAULIN ALBAN 26:00:41 S IND. M 419
215 BOUTON DIDIER 26:00:41 V1 IND. M 254
216 GUEYFFIER THIBAUD 26:00:41 S IND. M 405
217 CASTEROT FRANCIS 26:00:41 V2 FOYER AMITIE JULIAN M 524
218 LALAQUE Jean Pierre 26:00:41 V1 FOYER AMITIE JULIAN M 522
219 CIUFFA PINO 26:04:05 V1 IND. M 339
220 DE BOUCHERVILLE DOMINIQUE 26:04:05 V1 SPORT 2000 TUSSIN M 610
221 RICCARDO RIDOLFI 26:07:37 V2 POLIPSPORT ARENZANO M 340
222 BIGARD ALAIN 26:10:17 S ALCATEL SPACE M 353
223 LIEGOIS BERNARD 26:10:29 V2 ASRHV GERARGMEN M 657
224 VALLIER Jean MARC 26:11:07 V1 IND. M 246
225 FRANCOIS SOPHIE 26:13:56 V1F FOULEES CHABLAIS. F 299
226 PRESSACO PHILIPPE 26:13:56 V2 LEMAN ENDURANCE M 365
227 VERGNE Jean Pierre 26:15:00 V1 IND. M 261
228 MOIROUX PHILIPPE 26:16:50 S US ISSOIRE M 109
229 MARQUANT CHRISTOPHE 26:16:50 S US ISSOIRE M 121
230 ABADIE Jean PHILIPPE 26:30:44 V2 IND. M 330
231 CARBONE EMILIO 26:31:22 V2 SPIRIDON C.A. M 303
232 ORGAER EMMANUEL 26:34:24 V1 IND. M 388
233 FONTAINE ANNE CECILE 26:36:45 SF - F 204
234 ALLEGRET GILLES 26:36:55 V3 SAGY 95 M 191
235 MARI MICHEL 26:59:18 V2 G.S.E.M. M 279
236 RICARD SEBASTIEN 27:04:58 S IND. M 494
237 POLIZZI BERNARD 27:05:55 S IND. M 167
238 CHELOTTI EMMANUEL 27:05:55 S IND. M 168
239 MONNIER LYONEL 27:06:55 V2 LES PIEDS NIKES M 50
240 ROSSYE ANDRE 27:11:12 V2 ASCEA M 544
241 CAZALY WILLIAM 27:21:19 V3 IND. M 692
242 LAHARIE HUBERT J MICHEL 27:21:19 V3 IND. M 273
243 LAINE TANGUY 27:21:19 S VAMOS M 347
244 AMBLARD ROGER 27:28:58 V3 CMBM CHAMONIX M 285
245 EL KHILALI ABDELHADI 27:32:54 V1 AS CULT.FRANCOPHONE M 573
246 LOESER FRANCOIS 27:37:25 V1 JDM. M 222
247 PETIT ERIC 27:37:49 V1 AS VILLENEUVE RTT M 478
248 CAZALAS Jean MICHEL 27:42:54 V1 IND. M 297
249 ARZENTON SILVIO 27:45:33 V1 *AVIS TORINO M 155
250 GUIDOBALDI MASSIMO 27:45:33 V1 IND. M 527
251 BLONDEAU THIERRY 27:55:17 V1 IND. M 395
252 PAPAZIAN ANTRANIK 27:55:23 V2 SPORT IBM MARSEILLE M 335
253 TABERLET SERGE 28:00:04 V1 CMBM CHAMONIX M 271
254 CASTANO FRANCISCO 28:00:04 V1 *MONTBELIARD ATHLE M 307
255 LINDER HENRI 28:03:46 V1 T.C FORCALQUIER M 634
256 DELASALLE REGIS 28:04:42 V2 IND. M 676
257 BERTAUX FRANCOIS 28:08:17 V2 SPIRIDON C.A. M 668
258 MICHEL OLIVIER 28:11:45 V2 IND. M 485
259 NICOLAS GREGORY 28:11:45 S SPIRIDON C.A. M 504
260 DEGOUTIN J PHILIPPE 28:11:45 S IND. M 493
261 MONTARESI PATRICE 28:12:37 V1 SPEEDY CLUB PROVENCE M 258
262 LUCAS CHRISTIAN 28:12:37 S SPEEDY CLUB PROVENCE M 192
263 TORELLI GIOV BATTISTA 28:12:47 V2 ROMA ROAD RUNNERS M 550
264 COURRIAN OLIVIER 28:16:40 S DEJANTES DU COTEAU M 445
265 TORRES CLAUDE 28:17:03 V2F CAF DU COUDON F 256
266 MASSIEYE CATHERINE 28:17:03 V1F - F 251
267 ACLOQUE MARC 28:19:04 V2 S.L.S.A. M 373
268 CANDOTTO ANNE MARIE 28:19:22 V1F - F 129
269 MARQUET PATRICK 28:19:22 V1 IND. M 130
270 BOISSON FABRICE 28:19:53 V1 C.S.M. LA SEYNE M 687
271 ROBERT DENIS 28:20:01 V1 C.S.M. LA SEYNE M 476
272 TAVERNA ALBERTO 28:22:25 V1 LES AMIS GIAVENO M 640
273 DEMOULIN BEATRICE 28:30:25 V1F ASCEA F 541
274 GRASTIEN ROMAIN 28:30:25 S ASCEA M 536
275 PETIT SEVERIN 28:30:41 S - M 64
276 CROZIER MICHEL 28:31:21 S - M 588
277 BERNARD Jean Louis 28:36:39 V1 - M 556
278 LAMBERTO LOVO 29:08:11 V2 - M 497
279 MAURIZIO PIETROPAOLO 29:08:11 V1 - M 498
280 PERUZZINI DOMENICO 29:08:11 V1 *CAT SPORT ROMA M 358
281 DE STEFANI FRANCIS 29:15:38 V3 IND. M 248
282 DUPUIS ALAIN 29:24:53 V3 SPEEDY CLUB PROVENCE M 558
283 EDENNE JEROME 29:26:30 S IND. M 670
284 MORBE NICOLAS 29:47:20 V1 ASPTT TOULON M 200
285 MORILHAT SEBASTIEN 29:50:11 S CAF NICE M 521
286 BATTAULT VINCENT 29:50:11 S IND. M 102
287 CINQUIN JACQUES 29:50:44 V2 IND. M 501
288 LEPAPE ANNE MARIE 30:11:39 V2F KEKES DU BOCAGE F 433
289 MICHET BERNARD 30:12:22 V3 A.S. HOSPI. HYERES M 215
290 LECOEUR DANIEL 30:12:31 V2 REV 7 M 193
291 GIANESINI DAVID 30:46:46 S IND. M 663
292 PASINATO BRUNO 31:01:21 V2 COOL JOGGERS GIVORS M 323
293 GA SAO MAY YEN 31:09:39 SF - F 688
294 FORESTIERI ALEXANDRE 31:09:39 S AMSL FREJUS M 116
295 REBERE Jean Pierre 31:22:46 V1 A.S.C.K. M 277
296 SANTINI DANIELLE 31:23:24 V2F APACHES 06 F 21
297 BOUGON Jean Claude 31:23:24 V2 APACHES 06 M 5


ReferencementCe site est listé dans la catégorie Sport : Sports extrêmes Dictionnaire
| Accueil | La Réunion  Vue du ciel | Météo | Cyclones | Volcan | Cirques de Mafate , Cilaos , Salazie | Photos Randonnées | Randonnées Réunion: Randos Espiègle , Courses montagne | Diagonale des Fous |  Marathon des Sables | Voyages Les stats du site | Fonds écran | Plan du site | Blog de runraid | Galerie photos Sport Réunion |